Погода Петровна неделю

Гомельская область, Белоруссия

15 - 21 июля
  • 15июля
    Сегодня
    +20°
    +33°
    Небольшая облачность
    ВремяПогодаТемператураВлажностьДавлениеВетер, м/сВероятность осадков
    00:00Облачно с прояснениями+20°C94 %748 мм2.6 м/с4 %
    03:00Облачно с прояснениями+19°C98 %748 мм2.5 м/с2 %
    06:00Практически безоблачно+21°C99 %748 мм1.8 м/с2 %
    09:00Практически безоблачно+23°C81 %749 мм2.5 м/с2 %
    12:00Ясно и безоблачно+29°C68 %749 мм2.4 м/с2 %
    15:00Небольшая облачность+33°C59 %749 мм3.0 м/с5 %
    18:00Облачно с прояснениями+31°C62 %749 мм4.5 м/с34 %
    21:00Облачно с прояснениями+25°C81 %749 мм3.3 м/с14 %
  • 16июля
    Вторник
    +22°
    +34°
    Практически безоблачно
    ВремяПогодаТемператураВлажностьДавлениеВетер, м/сВероятность осадков
    00:00Облачно с прояснениями+23°C90 %749 мм2.4 м/с3 %
    03:00Практически безоблачно+21°C96 %749 мм2.3 м/с2 %
    06:00Ясно и безоблачно+22°C97 %749 мм2.0 м/с2 %
    09:00Ясно и безоблачно+26°C79 %750 мм2.3 м/с2 %
    12:00Ясно и безоблачно+30°C68 %750 мм2.8 м/с5 %
    15:00Практически безоблачно+33°C58 %750 мм3.2 м/с6 %
    18:00Ясно и безоблачно+32°C56 %749 мм4.3 м/с4 %
    21:00Ясно и безоблачно+27°C75 %749 мм3.0 м/с1 %
  • 17июля
    Среда
    +22°
    +35°
    Небольшая облачность
    ВремяПогодаТемператураВлажностьДавлениеВетер, м/сВероятность осадков
    00:00Ясно и безоблачно+24°C79 %749 мм2.6 м/с2 %
    03:00Ясно и безоблачно+23°C83 %749 мм2.7 м/с2 %
    06:00Ясно и безоблачно+23°C81 %749 мм2.3 м/с2 %
    09:00Практически безоблачно+27°C70 %749 мм2.8 м/с2 %
    12:00Практически безоблачно+32°C49 %749 мм3.9 м/с10 %
    15:00Небольшая облачность+33°C48 %749 мм4.1 м/с32 %
    18:00Практически безоблачно+32°C61 %748 мм5.1 м/с47 %
    21:00Облачно с прояснениями+27°C70 %749 мм3.5 м/с12 %
  • 18июля
    Четверг
    +18°
    +28°
    Ясно и безоблачно
    ВремяПогодаТемператураВлажностьДавлениеВетер, м/сВероятность осадков
    00:00Облачно с прояснениями+23°C81 %749 мм2.3 м/с18 %
    03:00Ясно и безоблачно+22°C89 %750 мм3.0 м/с6 %
    06:00Практически безоблачно+22°C92 %750 мм2.7 м/с8 %
    09:00Небольшая облачность+24°C75 %751 мм4.0 м/с15 %
    12:00Практически безоблачно+26°C54 %751 мм4.5 м/с36 %
    15:00Ясно и безоблачно+27°C44 %751 мм4.2 м/с19 %
    18:00Практически безоблачно+28°C43 %751 мм6.5 м/с15 %
    21:00Ясно и безоблачно+24°C60 %751 мм3.4 м/с7 %
  • 19июля
    Пятница
    +16°
    +29°
    Облачно с прояснениями
    ВремяПогодаТемператураВлажностьДавлениеВетер, м/сВероятность осадков
    00:00Ясно и безоблачно+20°C68 %751 мм2.6 м/с2 %
    03:00Ясно и безоблачно+18°C77 %751 мм2.6 м/с2 %
    06:00Ясно и безоблачно+18°C81 %751 мм2.2 м/с2 %
    09:00Практически безоблачно+23°C63 %751 мм3.3 м/с2 %
    12:00Облачно с прояснениями+26°C47 %751 мм5.0 м/с4 %
    15:00Облачно с прояснениями+28°C39 %750 мм5.3 м/с4 %
    18:00Практически безоблачно+27°C40 %749 мм6.8 м/с4 %
    21:00Ясно и безоблачно+22°C63 %748 мм3.5 м/с2 %
Мы используем cookies
Соглашаюсь